Panda — H8NH — position and weather

sailwx.info

Track history (hours):
 
Tides and Currents Weather Stations Pressure Air Temp Water Temp Dewpoint Dewpoint Depression Visibility Wind Speed Wind Dir Waves Ship Positions

Panda

Last reported at 2015-Jul-05 21:27 UTC. Time now 2015-Jul-07 11:04 UTC.
Position N 31°15' E 029°44'.

Length 171 m; draft 9.9 m.

Type: Cargo ship. MMSI: 352528000.

Date/timePositionNaut miles runAvg speedWind from/ knotsBaromVisibWave heightAir tempDewpointWater temp
2015-Jul-05 21:27N 31°15' E 029°44'20 4.8
2015-Jul-05 17:14N 31°34' E 029°36'1811.0
2015-Jul-05 15:33N 31°51' E 029°28'7610.8
2015-Jul-05 08:31N 33°01' E 028°52'1210.4
2015-Jul-05 07:21N 33°12' E 028°46'810.4
2015-Jul-05 06:33N 33°20' E 028°42'27610.6
2015-Jul-04 04:32N 37°21' E 025°56'1010.0
2015-Jul-04 03:33N 37°29' E 025°51'1010.3
2015-Jul-04 02:33N 37°39' E 025°48'244 8.4
2015-Jul-02 21:33N 40°56' E 028°55'2 1.1
2015-Jul-02 19:32N 40°58' E 028°56'0 0.0
2015-Jul-02 16:32N 40°58' E 028°56'0 0.1
2015-Jul-02 15:32N 40°58' E 028°56'1 0.6
2015-Jul-02 14:29N 40°59' E 028°57'19 8.2
2015-Jul-02 12:13N 41°15' E 029°08'338 7.5
2015-Jun-30 15:04N 46°36' E 031°39'5 8.6
2015-Jun-30 14:32N 46°36' E 031°46'8 8.1
2015-Jun-30 13:33N 46°40' E 031°56'8 8.2
2015-Jun-30 12:33N 46°48' E 031°53'3 2.5
2015-Jun-30 11:32N 46°50' E 031°55'0 0.0
2015-Jun-30 10:32N 46°50' E 031°55'0 0.0
2015-Jun-30 09:32N 46°50' E 031°55'0 0.0
2015-Jun-30 08:32N 46°50' E 031°55'0 0.1
2015-Jun-30 07:32N 46°50' E 031°56'0 0.1
2015-Jun-30 06:32N 46°50' E 031°56'0 0.0
2015-Jun-30 05:29N 46°50' E 031°56'0 0.0
2015-Jun-30 04:32N 46°50' E 031°56'0 0.1
2015-Jun-30 03:32N 46°50' E 031°56'0 0.0
2015-Jun-30 02:33N 46°50' E 031°56'1 1.3
2015-Jun-30 01:33N 46°51' E 031°57'1 1.3
2015-Jun-30 00:31N 46°51' E 031°59'0 0.0
2015-Jun-29 23:31N 46°51' E 031°59'0 0.0
2015-Jun-29 22:31N 46°51' E 031°59'0 0.0
2015-Jun-29 21:31N 46°51' E 031°59'0 0.0
2015-Jun-29 20:31N 46°51' E 031°59'0 0.0
2015-Jun-29 19:31N 46°51' E 031°59'0 0.0
2015-Jun-29 18:31N 46°51' E 031°59'0 0.0
2015-Jun-29 17:31N 46°51' E 031°59'0 0.0
2015-Jun-29 16:31N 46°51' E 031°59'0 0.0
2015-Jun-29 15:31N 46°51' E 031°59'0 0.0
2015-Jun-29 14:31N 46°51' E 031°59'0 0.0
2015-Jun-29 13:31N 46°51' E 031°59'0 0.0
2015-Jun-29 12:28N 46°51' E 031°59'0 0.0
2015-Jun-29 11:31N 46°51' E 031°59'0 0.0
2015-Jun-29 10:31N 46°51' E 031°59'0 0.0
2015-Jun-29 09:31N 46°51' E 031°59'0 0.0
2015-Jun-29 08:31N 46°51' E 031°59'0 0.0
2015-Jun-29 07:31N 46°51' E 031°59'0 0.0
2015-Jun-29 06:31N 46°51' E 031°59'0 0.0
2015-Jun-29 05:31N 46°51' E 031°59'0 0.0
2015-Jun-29 04:31N 46°51' E 031°59'0 0.0
2015-Jun-29 03:31N 46°51' E 031°59'0 0.0
2015-Jun-29 02:31N 46°51' E 031°59'0 0.0
2015-Jun-29 01:31N 46°51' E 031°59'0 0.0
2015-Jun-29 00:31N 46°51' E 031°59'0 0.0
2015-Jun-28 23:31N 46°51' E 031°59'0 0.0
2015-Jun-28 22:31N 46°51' E 031°59'0 0.0
2015-Jun-28 21:31N 46°51' E 031°59'0 0.0
2015-Jun-28 20:31N 46°51' E 031°59'0 0.0
2015-Jun-28 19:31N 46°51' E 031°59'0 0.0
2015-Jun-28 18:31N 46°51' E 031°59'0 0.0
2015-Jun-28 17:31N 46°51' E 031°59'0 0.0
2015-Jun-28 16:31N 46°51' E 031°59'0 0.0
2015-Jun-28 15:31N 46°51' E 031°59'0 0.0
2015-Jun-28 14:31N 46°51' E 031°59'0 0.0
2015-Jun-28 13:31N 46°51' E 031°59'0 0.0
2015-Jun-28 12:31N 46°51' E 031°59'0 0.0
2015-Jun-28 11:31N 46°51' E 031°59'0 0.0
2015-Jun-28 10:31N 46°51' E 031°59'0 0.0
2015-Jun-28 09:31N 46°51' E 031°59'0 0.0
2015-Jun-28 08:31N 46°51' E 031°59'0 0.0
2015-Jun-28 07:31N 46°51' E 031°59'0 0.0
2015-Jun-28 06:31N 46°51' E 031°59'0 0.0
2015-Jun-28 05:31N 46°51' E 031°59'0 0.0
2015-Jun-28 04:31N 46°51' E 031°59'0 0.0
2015-Jun-28 03:31N 46°51' E 031°59'0 0.0
2015-Jun-28 02:31N 46°51' E 031°59'0 0.0
2015-Jun-28 01:31N 46°51' E 031°59'0 0.0
2015-Jun-28 00:31N 46°51' E 031°59'0 0.0
2015-Jun-27 23:31N 46°51' E 031°59'0 0.0
2015-Jun-27 22:31N 46°51' E 031°59'0 0.0
2015-Jun-27 21:31N 46°51' E 031°59'0 0.0
2015-Jun-27 20:31N 46°51' E 031°59'0 0.0
2015-Jun-27 19:31N 46°51' E 031°59'0 0.0
2015-Jun-27 18:31N 46°51' E 031°59'0 0.0
2015-Jun-27 17:31N 46°51' E 031°59'0 0.0
2015-Jun-27 16:31N 46°51' E 031°59'0 0.0
2015-Jun-27 15:31N 46°51' E 031°59'0 0.0
2015-Jun-27 14:31N 46°51' E 031°59'0 0.0
2015-Jun-27 13:31N 46°51' E 031°59'0 0.0
2015-Jun-27 12:31N 46°51' E 031°59'0 0.0
2015-Jun-27 11:31N 46°51' E 031°59'0 0.0
2015-Jun-27 10:31N 46°51' E 031°59'0 0.0
2015-Jun-27 09:31N 46°51' E 031°59'0 0.0
2015-Jun-27 08:31N 46°51' E 031°59'0 0.0
2015-Jun-27 07:31N 46°51' E 031°59'0 0.0
2015-Jun-27 06:31N 46°51' E 031°59'0 0.0
2015-Jun-27 05:31N 46°51' E 031°59'0 0.0
2015-Jun-27 04:31N 46°51' E 031°59'0 0.0
2015-Jun-27 03:31N 46°51' E 031°59'0 0.0
2015-Jun-27 02:31N 46°51' E 031°59'0 0.0
2015-Jun-27 01:31N 46°51' E 031°59'0 0.0
2015-Jun-27 00:31N 46°51' E 031°59'0 0.0
2015-Jun-26 23:31N 46°51' E 031°59'0 0.0
2015-Jun-26 22:31N 46°51' E 031°59'0 0.0
2015-Jun-26 21:28N 46°51' E 031°59'0 0.0
2015-Jun-26 20:31N 46°51' E 031°59'0 0.0
2015-Jun-26 19:31N 46°51' E 031°59'0 0.0
2015-Jun-26 18:31N 46°51' E 031°59'0 0.0
2015-Jun-26 17:28N 46°51' E 031°59'0 0.0
2015-Jun-26 16:25N 46°51' E 031°59'0 0.0
2015-Jun-26 15:31N 46°51' E 031°59'0 0.0
2015-Jun-26 14:31N 46°51' E 031°59'0 0.0
2015-Jun-26 13:31N 46°51' E 031°59'0 0.0
2015-Jun-26 12:31N 46°51' E 031°59'0 0.0
2015-Jun-26 11:31N 46°51' E 031°59'0 0.0
2015-Jun-26 10:31N 46°51' E 031°59'0 0.0
2015-Jun-26 09:33N 46°51' E 031°59'25 5.9
2015-Jun-26 05:22N 46°34' E 031°33'5 6.1
2015-Jun-26 04:33N 46°35' E 031°25'22 7.3
2015-Jun-26 01:33N 46°25' E 030°57'  
Track history (hours):
 
Tides and Currents Weather Stations Pressure Air Temp Water Temp Dewpoint Dewpoint Depression Visibility Wind Speed Wind Dir Waves Ship Positions

Panda

Last reported at 2015-Jul-05 21:27 UTC. Time now 2015-Jul-07 11:04 UTC.
Position N 31°15' E 029°44'.

Length 171 m; draft 9.9 m.

Type: Cargo ship. MMSI: 352528000.

Date/timePositionNaut miles runAvg speedWind from/ knotsBaromVisibWave heightAir tempDewpointWater temp
2015-Jul-05 21:27N 31°15' E 029°44'20 4.8
2015-Jul-05 17:14N 31°34' E 029°36'1811.0
2015-Jul-05 15:33N 31°51' E 029°28'7610.8
2015-Jul-05 08:31N 33°01' E 028°52'1210.4
2015-Jul-05 07:21N 33°12' E 028°46'810.4
2015-Jul-05 06:33N 33°20' E 028°42'27610.6
2015-Jul-04 04:32N 37°21' E 025°56'1010.0
2015-Jul-04 03:33N 37°29' E 025°51'1010.3
2015-Jul-04 02:33N 37°39' E 025°48'244 8.4
2015-Jul-02 21:33N 40°56' E 028°55'2 1.1
2015-Jul-02 19:32N 40°58' E 028°56'0 0.0
2015-Jul-02 16:32N 40°58' E 028°56'0 0.1
2015-Jul-02 15:32N 40°58' E 028°56'1 0.6
2015-Jul-02 14:29N 40°59' E 028°57'19 8.2
2015-Jul-02 12:13N 41°15' E 029°08'338 7.5
2015-Jun-30 15:04N 46°36' E 031°39'5 8.6
2015-Jun-30 14:32N 46°36' E 031°46'8 8.1
2015-Jun-30 13:33N 46°40' E 031°56'8 8.2
2015-Jun-30 12:33N 46°48' E 031°53'3 2.5
2015-Jun-30 11:32N 46°50' E 031°55'0 0.0
2015-Jun-30 10:32N 46°50' E 031°55'0 0.0
2015-Jun-30 09:32N 46°50' E 031°55'0 0.0
2015-Jun-30 08:32N 46°50' E 031°55'0 0.1
2015-Jun-30 07:32N 46°50' E 031°56'0 0.1
2015-Jun-30 06:32N 46°50' E 031°56'0 0.0
2015-Jun-30 05:29N 46°50' E 031°56'0 0.0
2015-Jun-30 04:32N 46°50' E 031°56'0 0.1
2015-Jun-30 03:32N 46°50' E 031°56'0 0.0
2015-Jun-30 02:33N 46°50' E 031°56'1 1.3
2015-Jun-30 01:33N 46°51' E 031°57'1 1.3
2015-Jun-30 00:31N 46°51' E 031°59'0 0.0
2015-Jun-29 23:31N 46°51' E 031°59'0 0.0
2015-Jun-29 22:31N 46°51' E 031°59'0 0.0
2015-Jun-29 21:31N 46°51' E 031°59'0 0.0
2015-Jun-29 20:31N 46°51' E 031°59'0 0.0
2015-Jun-29 19:31N 46°51' E 031°59'0 0.0
2015-Jun-29 18:31N 46°51' E 031°59'0 0.0
2015-Jun-29 17:31N 46°51' E 031°59'0 0.0
2015-Jun-29 16:31N 46°51' E 031°59'0 0.0
2015-Jun-29 15:31N 46°51' E 031°59'0 0.0
2015-Jun-29 14:31N 46°51' E 031°59'0 0.0
2015-Jun-29 13:31N 46°51' E 031°59'0 0.0
2015-Jun-29 12:28N 46°51' E 031°59'0 0.0
2015-Jun-29 11:31N 46°51' E 031°59'0 0.0
2015-Jun-29 10:31N 46°51' E 031°59'0 0.0
2015-Jun-29 09:31N 46°51' E 031°59'0 0.0
2015-Jun-29 08:31N 46°51' E 031°59'0 0.0
2015-Jun-29 07:31N 46°51' E 031°59'0 0.0
2015-Jun-29 06:31N 46°51' E 031°59'0 0.0
2015-Jun-29 05:31N 46°51' E 031°59'0 0.0
2015-Jun-29 04:31N 46°51' E 031°59'0 0.0
2015-Jun-29 03:31N 46°51' E 031°59'0 0.0
2015-Jun-29 02:31N 46°51' E 031°59'0 0.0
2015-Jun-29 01:31N 46°51' E 031°59'0 0.0
2015-Jun-29 00:31N 46°51' E 031°59'0 0.0
2015-Jun-28 23:31N 46°51' E 031°59'0 0.0
2015-Jun-28 22:31N 46°51' E 031°59'0 0.0
2015-Jun-28 21:31N 46°51' E 031°59'0 0.0
2015-Jun-28 20:31N 46°51' E 031°59'0 0.0
2015-Jun-28 19:31N 46°51' E 031°59'0 0.0
2015-Jun-28 18:31N 46°51' E 031°59'0 0.0
2015-Jun-28 17:31N 46°51' E 031°59'0 0.0
2015-Jun-28 16:31N 46°51' E 031°59'0 0.0
2015-Jun-28 15:31N 46°51' E 031°59'0 0.0
2015-Jun-28 14:31N 46°51' E 031°59'0 0.0
2015-Jun-28 13:31N 46°51' E 031°59'0 0.0
2015-Jun-28 12:31N 46°51' E 031°59'0 0.0
2015-Jun-28 11:31N 46°51' E 031°59'0 0.0
2015-Jun-28 10:31N 46°51' E 031°59'0 0.0
2015-Jun-28 09:31N 46°51' E 031°59'0 0.0
2015-Jun-28 08:31N 46°51' E 031°59'0 0.0
2015-Jun-28 07:31N 46°51' E 031°59'0 0.0
2015-Jun-28 06:31N 46°51' E 031°59'0 0.0
2015-Jun-28 05:31N 46°51' E 031°59'0 0.0
2015-Jun-28 04:31N 46°51' E 031°59'0 0.0
2015-Jun-28 03:31N 46°51' E 031°59'0 0.0
2015-Jun-28 02:31N 46°51' E 031°59'0 0.0
2015-Jun-28 01:31N 46°51' E 031°59'0 0.0
2015-Jun-28 00:31N 46°51' E 031°59'0 0.0
2015-Jun-27 23:31N 46°51' E 031°59'0 0.0
2015-Jun-27 22:31N 46°51' E 031°59'0 0.0
2015-Jun-27 21:31N 46°51' E 031°59'0 0.0
2015-Jun-27 20:31N 46°51' E 031°59'0 0.0
2015-Jun-27 19:31N 46°51' E 031°59'0 0.0
2015-Jun-27 18:31N 46°51' E 031°59'0 0.0
2015-Jun-27 17:31N 46°51' E 031°59'0 0.0
2015-Jun-27 16:31N 46°51' E 031°59'0 0.0
2015-Jun-27 15:31N 46°51' E 031°59'0 0.0
2015-Jun-27 14:31N 46°51' E 031°59'0 0.0
2015-Jun-27 13:31N 46°51' E 031°59'0 0.0
2015-Jun-27 12:31N 46°51' E 031°59'0 0.0
2015-Jun-27 11:31N 46°51' E 031°59'0 0.0
2015-Jun-27 10:31N 46°51' E 031°59'0 0.0
2015-Jun-27 09:31N 46°51' E 031°59'0 0.0
2015-Jun-27 08:31N 46°51' E 031°59'0 0.0
2015-Jun-27 07:31N 46°51' E 031°59'0 0.0
2015-Jun-27 06:31N 46°51' E 031°59'0 0.0
2015-Jun-27 05:31N 46°51' E 031°59'0 0.0
2015-Jun-27 04:31N 46°51' E 031°59'0 0.0
2015-Jun-27 03:31N 46°51' E 031°59'0 0.0
2015-Jun-27 02:31N 46°51' E 031°59'0 0.0
2015-Jun-27 01:31N 46°51' E 031°59'0 0.0
2015-Jun-27 00:31N 46°51' E 031°59'0 0.0
2015-Jun-26 23:31N 46°51' E 031°59'0 0.0
2015-Jun-26 22:31N 46°51' E 031°59'0 0.0
2015-Jun-26 21:28N 46°51' E 031°59'0 0.0
2015-Jun-26 20:31N 46°51' E 031°59'0 0.0
2015-Jun-26 19:31N 46°51' E 031°59'0 0.0
2015-Jun-26 18:31N 46°51' E 031°59'0 0.0
2015-Jun-26 17:28N 46°51' E 031°59'0 0.0
2015-Jun-26 16:25N 46°51' E 031°59'0 0.0
2015-Jun-26 15:31N 46°51' E 031°59'0 0.0
2015-Jun-26 14:31N 46°51' E 031°59'0 0.0
2015-Jun-26 13:31N 46°51' E 031°59'0 0.0
2015-Jun-26 12:31N 46°51' E 031°59'0 0.0
2015-Jun-26 11:31N 46°51' E 031°59'0 0.0
2015-Jun-26 10:31N 46°51' E 031°59'0 0.0
2015-Jun-26 09:33N 46°51' E 031°59'25 5.9
2015-Jun-26 05:22N 46°34' E 031°33'5 6.1
2015-Jun-26 04:33N 46°35' E 031°25'22 7.3
2015-Jun-26 01:33N 46°25' E 030°57'  

Dump ship's entire track history